sensor_id;sensor_type;location;lat;lon;timestamp;P1;durP1;ratioP1;P2;durP2;ratioP2
51907;SDS011;39320;53.214;6.556;2023-08-31T00:02:25;1.27;;;0.65;;
51907;SDS011;39320;53.214;6.556;2023-08-31T00:04:51;0.88;;;0.77;;
51907;SDS011;39320;53.214;6.556;2023-08-31T00:07:21;0.77;;;0.70;;
51907;SDS011;39320;53.214;6.556;2023-08-31T00:09:46;1.30;;;0.60;;
51907;SDS011;39320;53.214;6.556;2023-08-31T00:12:15;2.53;;;0.90;;
51907;SDS011;39320;53.214;6.556;2023-08-31T00:14:41;1.15;;;0.65;;
51907;SDS011;39320;53.214;6.556;2023-08-31T00:17:07;1.33;;;0.70;;
51907;SDS011;39320;53.214;6.556;2023-08-31T00:19:33;1.77;;;0.73;;
51907;SDS011;39320;53.214;6.556;2023-08-31T00:21:59;1.92;;;0.80;;
51907;SDS011;39320;53.214;6.556;2023-08-31T00:24:24;1.52;;;0.80;;
51907;SDS011;39320;53.214;6.556;2023-08-31T00:26:55;1.50;;;0.80;;
51907;SDS011;39320;53.214;6.556;2023-08-31T00:29:21;1.10;;;1.00;;
51907;SDS011;39320;53.214;6.556;2023-08-31T00:31:48;1.00;;;0.90;;
51907;SDS011;39320;53.214;6.556;2023-08-31T00:34:16;1.65;;;1.20;;
51907;SDS011;39320;53.214;6.556;2023-08-31T00:36:42;1.95;;;1.60;;
51907;SDS011;39320;53.214;6.556;2023-08-31T00:39:08;2.03;;;0.93;;
51907;SDS011;39320;53.214;6.556;2023-08-31T00:41:36;1.33;;;1.05;;
51907;SDS011;39320;53.214;6.556;2023-08-31T00:44:02;1.67;;;1.00;;
51907;SDS011;39320;53.214;6.556;2023-08-31T00:46:32;1.45;;;1.10;;
51907;SDS011;39320;53.214;6.556;2023-08-31T00:49:02;2.08;;;0.88;;
51907;SDS011;39320;53.214;6.556;2023-08-31T00:51:31;1.75;;;1.10;;
51907;SDS011;39320;53.214;6.556;2023-08-31T00:53:57;1.80;;;0.95;;
51907;SDS011;39320;53.214;6.556;2023-08-31T00:56:24;1.25;;;1.15;;
51907;SDS011;39320;53.214;6.556;2023-08-31T00:58:51;2.55;;;1.40;;
51907;SDS011;39320;53.214;6.556;2023-08-31T01:04:18;2.33;;;1.15;;
51907;SDS011;39320;53.214;6.556;2023-08-31T01:09:34;1.77;;;1.00;;
51907;SDS011;39320;53.214;6.556;2023-08-31T01:12:52;2.13;;;1.30;;
51907;SDS011;39320;53.214;6.556;2023-08-31T01:15:10;2.83;;;1.15;;
51907;SDS011;39320;53.214;6.556;2023-08-31T01:17:39;1.23;;;1.10;;
51907;SDS011;39320;53.214;6.556;2023-08-31T01:20:10;1.23;;;1.13;;
51907;SDS011;39320;53.214;6.556;2023-08-31T01:22:48;1.17;;;1.05;;
51907;SDS011;39320;53.214;6.556;2023-08-31T01:25:22;0.90;;;0.90;;
51907;SDS011;39320;53.214;6.556;2023-08-31T01:27:49;0.70;;;0.70;;
51907;SDS011;39320;53.214;6.556;2023-08-31T01:30:16;2.22;;;0.98;;
51907;SDS011;39320;53.214;6.556;2023-08-31T01:32:45;1.40;;;1.00;;
51907;SDS011;39320;53.214;6.556;2023-08-31T01:35:12;1.00;;;0.90;;
51907;SDS011;39320;53.214;6.556;2023-08-31T01:37:49;1.02;;;0.93;;
51907;SDS011;39320;53.214;6.556;2023-08-31T01:47:47;0.80;;;0.60;;
51907;SDS011;39320;53.214;6.556;2023-08-31T01:50:13;0.98;;;0.90;;
51907;SDS011;39320;53.214;6.556;2023-08-31T01:52:39;1.25;;;0.82;;
51907;SDS011;39320;53.214;6.556;2023-08-31T01:55:05;0.90;;;0.85;;
51907;SDS011;39320;53.214;6.556;2023-08-31T01:57:31;1.33;;;0.80;;
51907;SDS011;39320;53.214;6.556;2023-08-31T01:59:58;1.27;;;0.75;;
51907;SDS011;39320;53.214;6.556;2023-08-31T02:02:24;1.42;;;0.90;;
51907;SDS011;39320;53.214;6.556;2023-08-31T02:04:50;0.98;;;0.80;;
51907;SDS011;39320;53.214;6.556;2023-08-31T02:07:17;1.33;;;0.75;;
51907;SDS011;39320;53.214;6.556;2023-08-31T02:09:43;1.02;;;0.70;;
51907;SDS011;39320;53.214;6.556;2023-08-31T02:12:09;1.00;;;0.52;;
51907;SDS011;39320;53.214;6.556;2023-08-31T02:14:35;1.20;;;0.90;;
51907;SDS011;39320;53.214;6.556;2023-08-31T02:17:01;0.70;;;0.50;;
51907;SDS011;39320;53.214;6.556;2023-08-31T02:19:27;0.80;;;0.80;;
51907;SDS011;39320;53.214;6.556;2023-08-31T02:21:53;0.70;;;0.60;;
51907;SDS011;39320;53.214;6.556;2023-08-31T02:24:18;1.80;;;0.88;;
51907;SDS011;39320;53.214;6.556;2023-08-31T02:26:44;1.25;;;0.70;;
51907;SDS011;39320;53.214;6.556;2023-08-31T02:29:10;1.05;;;0.68;;
51907;SDS011;39320;53.214;6.556;2023-08-31T02:31:36;2.88;;;0.90;;
51907;SDS011;39320;53.214;6.556;2023-08-31T02:34:03;1.65;;;0.60;;
51907;SDS011;39320;53.214;6.556;2023-08-31T02:36:29;1.95;;;0.60;;
51907;SDS011;39320;53.214;6.556;2023-08-31T02:38:55;0.82;;;0.55;;
51907;SDS011;39320;53.214;6.556;2023-08-31T02:41:21;1.00;;;0.80;;
51907;SDS011;39320;53.214;6.556;2023-08-31T02:43:50;0.95;;;0.80;;
51907;SDS011;39320;53.214;6.556;2023-08-31T02:46:17;0.80;;;0.60;;
51907;SDS011;39320;53.214;6.556;2023-08-31T02:48:43;1.80;;;0.50;;
51907;SDS011;39320;53.214;6.556;2023-08-31T02:51:09;1.10;;;0.70;;
51907;SDS011;39320;53.214;6.556;2023-08-31T02:53:38;1.27;;;0.70;;
51907;SDS011;39320;53.214;6.556;2023-08-31T02:56:04;2.42;;;0.77;;
51907;SDS011;39320;53.214;6.556;2023-08-31T02:58:30;3.65;;;0.70;;
51907;SDS011;39320;53.214;6.556;2023-08-31T03:01:06;1.27;;;0.70;;
51907;SDS011;39320;53.214;6.556;2023-08-31T03:03:36;0.80;;;0.50;;
51907;SDS011;39320;53.214;6.556;2023-08-31T03:06:03;0.85;;;0.70;;
51907;SDS011;39320;53.214;6.556;2023-08-31T03:08:31;1.23;;;0.60;;
51907;SDS011;39320;53.214;6.556;2023-08-31T03:10:56;0.50;;;0.47;;
51907;SDS011;39320;53.214;6.556;2023-08-31T03:13:23;0.73;;;0.50;;
51907;SDS011;39320;53.214;6.556;2023-08-31T03:15:49;1.52;;;0.60;;
51907;SDS011;39320;53.214;6.556;2023-08-31T03:18:14;0.70;;;0.55;;
51907;SDS011;39320;53.214;6.556;2023-08-31T03:20:40;0.63;;;0.50;;
51907;SDS011;39320;53.214;6.556;2023-08-31T03:23:06;0.98;;;0.40;;
51907;SDS011;39320;53.214;6.556;2023-08-31T03:25:31;0.40;;;0.32;;
51907;SDS011;39320;53.214;6.556;2023-08-31T03:27:57;1.20;;;0.50;;
51907;SDS011;39320;53.214;6.556;2023-08-31T03:30:23;0.80;;;0.70;;
51907;SDS011;39320;53.214;6.556;2023-08-31T03:32:48;1.08;;;0.80;;
51907;SDS011;39320;53.214;6.556;2023-08-31T03:35:14;0.90;;;0.50;;
51907;SDS011;39320;53.214;6.556;2023-08-31T03:37:40;1.08;;;0.70;;
51907;SDS011;39320;53.214;6.556;2023-08-31T03:40:06;1.15;;;0.52;;
51907;SDS011;39320;53.214;6.556;2023-08-31T03:42:33;1.00;;;0.70;;
51907;SDS011;39320;53.214;6.556;2023-08-31T03:44:59;0.52;;;0.50;;
51907;SDS011;39320;53.214;6.556;2023-08-31T03:47:25;0.50;;;0.40;;
51907;SDS011;39320;53.214;6.556;2023-08-31T03:49:51;0.98;;;0.57;;
51907;SDS011;39320;53.214;6.556;2023-08-31T03:52:16;1.10;;;0.55;;
51907;SDS011;39320;53.214;6.556;2023-08-31T03:54:42;0.98;;;0.60;;
51907;SDS011;39320;53.214;6.556;2023-08-31T03:57:08;0.60;;;0.50;;
51907;SDS011;39320;53.214;6.556;2023-08-31T03:59:33;0.45;;;0.45;;
51907;SDS011;39320;53.214;6.556;2023-08-31T04:01:59;0.75;;;0.75;;
51907;SDS011;39320;53.214;6.556;2023-08-31T04:04:25;1.63;;;0.60;;
51907;SDS011;39320;53.214;6.556;2023-08-31T04:06:51;0.68;;;0.60;;
51907;SDS011;39320;53.214;6.556;2023-08-31T04:09:16;0.68;;;0.50;;
51907;SDS011;39320;53.214;6.556;2023-08-31T04:11:42;1.42;;;0.80;;
51907;SDS011;39320;53.214;6.556;2023-08-31T04:14:08;0.63;;;0.50;;
51907;SDS011;39320;53.214;6.556;2023-08-31T04:16:34;0.85;;;0.65;;
51907;SDS011;39320;53.214;6.556;2023-08-31T04:18:59;0.70;;;0.50;;
51907;SDS011;39320;53.214;6.556;2023-08-31T04:21:25;0.75;;;0.60;;
51907;SDS011;39320;53.214;6.556;2023-08-31T04:23:51;1.50;;;0.55;;
51907;SDS011;39320;53.214;6.556;2023-08-31T04:26:16;0.65;;;0.65;;
51907;SDS011;39320;53.214;6.556;2023-08-31T04:28:42;0.80;;;0.50;;
51907;SDS011;39320;53.214;6.556;2023-08-31T04:31:08;0.95;;;0.65;;
51907;SDS011;39320;53.214;6.556;2023-08-31T04:33:34;1.00;;;0.80;;
51907;SDS011;39320;53.214;6.556;2023-08-31T04:36:00;1.42;;;0.80;;
51907;SDS011;39320;53.214;6.556;2023-08-31T04:38:26;1.48;;;1.00;;
51907;SDS011;39320;53.214;6.556;2023-08-31T04:40:52;0.70;;;0.60;;
51907;SDS011;39320;53.214;6.556;2023-08-31T04:43:18;1.42;;;0.65;;
51907;SDS011;39320;53.214;6.556;2023-08-31T04:45:43;1.85;;;0.73;;
51907;SDS011;39320;53.214;6.556;2023-08-31T04:48:09;1.42;;;0.82;;
51907;SDS011;39320;53.214;6.556;2023-08-31T04:50:35;1.08;;;0.77;;
51907;SDS011;39320;53.214;6.556;2023-08-31T04:53:01;0.60;;;0.55;;
51907;SDS011;39320;53.214;6.556;2023-08-31T04:55:27;0.77;;;0.77;;
51907;SDS011;39320;53.214;6.556;2023-08-31T04:57:52;1.98;;;0.80;;
51907;SDS011;39320;53.214;6.556;2023-08-31T05:00:18;2.30;;;0.93;;
51907;SDS011;39320;53.214;6.556;2023-08-31T05:02:44;1.85;;;0.80;;
51907;SDS011;39320;53.214;6.556;2023-08-31T05:05:10;0.80;;;0.80;;
51907;SDS011;39320;53.214;6.556;2023-08-31T05:07:35;0.68;;;0.68;;
51907;SDS011;39320;53.214;6.556;2023-08-31T05:10:02;0.88;;;0.80;;
51907;SDS011;39320;53.214;6.556;2023-08-31T05:12:28;1.27;;;1.02;;
51907;SDS011;39320;53.214;6.556;2023-08-31T05:14:54;1.42;;;0.73;;
51907;SDS011;39320;53.214;6.556;2023-08-31T05:17:21;1.13;;;0.95;;
51907;SDS011;39320;53.214;6.556;2023-08-31T05:19:46;0.95;;;0.60;;
51907;SDS011;39320;53.214;6.556;2023-08-31T05:22:12;1.85;;;0.85;;
51907;SDS011;39320;53.214;6.556;2023-08-31T05:24:39;1.83;;;1.00;;
51907;SDS011;39320;53.214;6.556;2023-08-31T05:27:04;1.48;;;1.00;;
51907;SDS011;39320;53.214;6.556;2023-08-31T05:29:30;2.05;;;1.13;;
51907;SDS011;39320;53.214;6.556;2023-08-31T05:31:56;1.10;;;0.95;;
51907;SDS011;39320;53.214;6.556;2023-08-31T05:34:22;1.23;;;1.00;;
51907;SDS011;39320;53.214;6.556;2023-08-31T05:36:48;1.10;;;1.00;;
51907;SDS011;39320;53.214;6.556;2023-08-31T05:39:14;1.65;;;0.88;;
51907;SDS011;39320;53.214;6.556;2023-08-31T05:41:41;1.45;;;1.10;;
51907;SDS011;39320;53.214;6.556;2023-08-31T05:44:08;2.35;;;1.08;;
51907;SDS011;39320;53.214;6.556;2023-08-31T05:46:34;1.58;;;0.95;;
51907;SDS011;39320;53.214;6.556;2023-08-31T05:49:00;1.10;;;0.93;;
51907;SDS011;39320;53.214;6.556;2023-08-31T05:51:26;2.55;;;0.88;;
51907;SDS011;39320;53.214;6.556;2023-08-31T05:53:52;1.33;;;0.90;;
51907;SDS011;39320;53.214;6.556;2023-08-31T05:56:18;3.63;;;1.20;;
51907;SDS011;39320;53.214;6.556;2023-08-31T05:58:44;0.98;;;0.77;;
51907;SDS011;39320;53.214;6.556;2023-08-31T06:01:10;1.52;;;0.80;;
51907;SDS011;39320;53.214;6.556;2023-08-31T06:03:36;2.15;;;1.00;;
51907;SDS011;39320;53.214;6.556;2023-08-31T06:06:02;2.38;;;0.93;;
51907;SDS011;39320;53.214;6.556;2023-08-31T06:08:28;1.05;;;0.63;;
51907;SDS011;39320;53.214;6.556;2023-08-31T06:10:55;1.80;;;1.02;;
51907;SDS011;39320;53.214;6.556;2023-08-31T06:13:21;1.23;;;1.02;;
51907;SDS011;39320;53.214;6.556;2023-08-31T06:15:47;1.42;;;0.90;;
51907;SDS011;39320;53.214;6.556;2023-08-31T06:18:13;1.55;;;1.05;;
51907;SDS011;39320;53.214;6.556;2023-08-31T06:20:39;0.88;;;0.70;;
51907;SDS011;39320;53.214;6.556;2023-08-31T06:23:05;1.80;;;0.80;;
51907;SDS011;39320;53.214;6.556;2023-08-31T06:25:30;1.17;;;0.82;;
51907;SDS011;39320;53.214;6.556;2023-08-31T06:27:59;1.83;;;0.82;;
51907;SDS011;39320;53.214;6.556;2023-08-31T06:30:25;1.67;;;1.00;;
51907;SDS011;39320;53.214;6.556;2023-08-31T06:32:50;3.17;;;0.82;;
51907;SDS011;39320;53.214;6.556;2023-08-31T06:35:16;2.67;;;1.10;;
51907;SDS011;39320;53.214;6.556;2023-08-31T06:37:42;1.33;;;1.00;;
51907;SDS011;39320;53.214;6.556;2023-08-31T06:40:09;1.25;;;0.93;;
51907;SDS011;39320;53.214;6.556;2023-08-31T06:42:36;2.90;;;1.17;;
51907;SDS011;39320;53.214;6.556;2023-08-31T06:45:05;2.28;;;1.00;;
51907;SDS011;39320;53.214;6.556;2023-08-31T06:47:32;1.65;;;1.00;;
51907;SDS011;39320;53.214;6.556;2023-08-31T06:49:58;1.42;;;0.82;;
51907;SDS011;39320;53.214;6.556;2023-08-31T06:52:27;2.67;;;0.70;;
51907;SDS011;39320;53.214;6.556;2023-08-31T06:54:53;1.08;;;0.70;;
51907;SDS011;39320;53.214;6.556;2023-08-31T06:57:21;1.00;;;0.82;;
51907;SDS011;39320;53.214;6.556;2023-08-31T06:59:47;3.20;;;1.00;;
51907;SDS011;39320;53.214;6.556;2023-08-31T07:02:13;2.30;;;0.68;;
51907;SDS011;39320;53.214;6.556;2023-08-31T07:04:39;1.17;;;0.77;;
51907;SDS011;39320;53.214;6.556;2023-08-31T07:07:05;1.05;;;0.70;;
51907;SDS011;39320;53.214;6.556;2023-08-31T07:09:31;1.77;;;0.73;;
51907;SDS011;39320;53.214;6.556;2023-08-31T07:11:57;3.47;;;0.80;;
51907;SDS011;39320;53.214;6.556;2023-08-31T07:14:23;2.42;;;0.70;;
51907;SDS011;39320;53.214;6.556;2023-08-31T07:16:49;0.98;;;0.55;;
51907;SDS011;39320;53.214;6.556;2023-08-31T07:19:15;1.15;;;0.50;;
51907;SDS011;39320;53.214;6.556;2023-08-31T07:21:41;1.52;;;0.70;;
51907;SDS011;39320;53.214;6.556;2023-08-31T07:24:07;1.55;;;0.95;;
51907;SDS011;39320;53.214;6.556;2023-08-31T07:26:33;2.08;;;0.65;;
51907;SDS011;39320;53.214;6.556;2023-08-31T07:29:00;3.42;;;0.95;;
51907;SDS011;39320;53.214;6.556;2023-08-31T07:31:29;0.70;;;0.70;;
51907;SDS011;39320;53.214;6.556;2023-08-31T07:33:56;1.58;;;0.70;;
51907;SDS011;39320;53.214;6.556;2023-08-31T07:36:21;2.13;;;0.90;;
51907;SDS011;39320;53.214;6.556;2023-08-31T07:38:47;1.63;;;0.90;;
51907;SDS011;39320;53.214;6.556;2023-08-31T07:41:13;0.70;;;0.60;;
51907;SDS011;39320;53.214;6.556;2023-08-31T07:43:38;0.88;;;0.60;;
51907;SDS011;39320;53.214;6.556;2023-08-31T07:46:04;1.90;;;0.80;;
51907;SDS011;39320;53.214;6.556;2023-08-31T07:48:30;2.05;;;0.75;;
51907;SDS011;39320;53.214;6.556;2023-08-31T07:50:55;1.05;;;0.65;;
51907;SDS011;39320;53.214;6.556;2023-08-31T07:53:21;0.95;;;0.75;;
51907;SDS011;39320;53.214;6.556;2023-08-31T07:55:54;2.88;;;0.70;;
51907;SDS011;39320;53.214;6.556;2023-08-31T07:58:24;0.82;;;0.60;;
51907;SDS011;39320;53.214;6.556;2023-08-31T08:00:57;1.70;;;0.65;;
51907;SDS011;39320;53.214;6.556;2023-08-31T08:03:23;0.40;;;0.40;;
51907;SDS011;39320;53.214;6.556;2023-08-31T08:05:49;1.75;;;0.60;;
51907;SDS011;39320;53.214;6.556;2023-08-31T08:08:15;0.82;;;0.57;;
51907;SDS011;39320;53.214;6.556;2023-08-31T08:10:41;1.13;;;0.70;;
51907;SDS011;39320;53.214;6.556;2023-08-31T08:13:08;1.02;;;0.60;;
51907;SDS011;39320;53.214;6.556;2023-08-31T08:15:34;0.80;;;0.50;;
51907;SDS011;39320;53.214;6.556;2023-08-31T08:18:00;0.85;;;0.60;;
51907;SDS011;39320;53.214;6.556;2023-08-31T08:20:27;2.00;;;0.50;;
51907;SDS011;39320;53.214;6.556;2023-08-31T08:22:53;0.57;;;0.40;;
51907;SDS011;39320;53.214;6.556;2023-08-31T08:25:19;0.88;;;0.50;;
51907;SDS011;39320;53.214;6.556;2023-08-31T08:27:46;1.48;;;0.40;;
51907;SDS011;39320;53.214;6.556;2023-08-31T08:30:12;0.95;;;0.60;;
51907;SDS011;39320;53.214;6.556;2023-08-31T08:32:38;0.60;;;0.50;;
51907;SDS011;39320;53.214;6.556;2023-08-31T08:35:04;5.40;;;0.85;;
51907;SDS011;39320;53.214;6.556;2023-08-31T08:37:31;3.13;;;0.70;;
51907;SDS011;39320;53.214;6.556;2023-08-31T08:40:00;1.38;;;0.50;;
51907;SDS011;39320;53.214;6.556;2023-08-31T08:42:26;0.50;;;0.50;;
51907;SDS011;39320;53.214;6.556;2023-08-31T08:44:58;0.80;;;0.43;;
51907;SDS011;39320;53.214;6.556;2023-08-31T08:47:26;0.95;;;0.50;;
51907;SDS011;39320;53.214;6.556;2023-08-31T08:49:53;1.02;;;0.70;;
51907;SDS011;39320;53.214;6.556;2023-08-31T08:52:20;1.52;;;0.40;;
51907;SDS011;39320;53.214;6.556;2023-08-31T08:54:46;2.42;;;0.77;;
51907;SDS011;39320;53.214;6.556;2023-08-31T08:57:14;0.75;;;0.50;;
51907;SDS011;39320;53.214;6.556;2023-08-31T08:59:39;1.02;;;0.45;;
51907;SDS011;39320;53.214;6.556;2023-08-31T09:02:06;1.13;;;0.50;;
51907;SDS011;39320;53.214;6.556;2023-08-31T09:04:37;1.52;;;0.57;;
51907;SDS011;39320;53.214;6.556;2023-08-31T09:07:03;1.15;;;0.40;;
51907;SDS011;39320;53.214;6.556;2023-08-31T09:09:29;1.67;;;0.50;;
51907;SDS011;39320;53.214;6.556;2023-08-31T09:11:54;0.68;;;0.45;;
51907;SDS011;39320;53.214;6.556;2023-08-31T09:14:23;0.43;;;0.38;;
51907;SDS011;39320;53.214;6.556;2023-08-31T09:16:49;0.50;;;0.50;;
51907;SDS011;39320;53.214;6.556;2023-08-31T09:21:47;2.22;;;0.60;;
51907;SDS011;39320;53.214;6.556;2023-08-31T09:24:17;0.55;;;0.40;;
51907;SDS011;39320;53.214;6.556;2023-08-31T09:26:44;1.45;;;0.50;;
51907;SDS011;39320;53.214;6.556;2023-08-31T09:29:11;0.68;;;0.55;;
51907;SDS011;39320;53.214;6.556;2023-08-31T09:31:37;0.80;;;0.50;;
51907;SDS011;39320;53.214;6.556;2023-08-31T09:34:03;2.63;;;0.45;;
51907;SDS011;39320;53.214;6.556;2023-08-31T09:36:29;0.40;;;0.40;;
51907;SDS011;39320;53.214;6.556;2023-08-31T09:38:58;1.25;;;0.55;;
51907;SDS011;39320;53.214;6.556;2023-08-31T09:41:24;1.65;;;0.70;;
51907;SDS011;39320;53.214;6.556;2023-08-31T09:43:50;0.65;;;0.50;;
51907;SDS011;39320;53.214;6.556;2023-08-31T09:46:15;1.83;;;0.73;;
51907;SDS011;39320;53.214;6.556;2023-08-31T09:48:42;1.00;;;0.50;;
51907;SDS011;39320;53.214;6.556;2023-08-31T09:51:09;0.65;;;0.55;;
51907;SDS011;39320;53.214;6.556;2023-08-31T09:53:36;0.50;;;0.40;;
51907;SDS011;39320;53.214;6.556;2023-08-31T09:56:04;0.88;;;0.40;;
51907;SDS011;39320;53.214;6.556;2023-08-31T09:58:31;0.40;;;0.30;;
51907;SDS011;39320;53.214;6.556;2023-08-31T10:00:58;0.95;;;0.65;;
51907;SDS011;39320;53.214;6.556;2023-08-31T10:03:25;1.50;;;0.70;;
51907;SDS011;39320;53.214;6.556;2023-08-31T10:05:52;1.90;;;0.52;;
51907;SDS011;39320;53.214;6.556;2023-08-31T10:08:26;1.42;;;0.47;;
51907;SDS011;39320;53.214;6.556;2023-08-31T10:10:57;1.75;;;0.60;;
51907;SDS011;39320;53.214;6.556;2023-08-31T10:13:28;0.68;;;0.43;;
51907;SDS011;39320;53.214;6.556;2023-08-31T10:16:00;2.13;;;0.60;;
51907;SDS011;39320;53.214;6.556;2023-08-31T10:18:28;1.42;;;0.50;;
51907;SDS011;39320;53.214;6.556;2023-08-31T10:20:55;1.33;;;0.63;;
51907;SDS011;39320;53.214;6.556;2023-08-31T10:23:21;1.80;;;0.63;;
51907;SDS011;39320;53.214;6.556;2023-08-31T10:28:23;0.80;;;0.80;;
51907;SDS011;39320;53.214;6.556;2023-08-31T10:31:09;2.10;;;0.70;;
51907;SDS011;39320;53.214;6.556;2023-08-31T10:33:41;0.70;;;0.50;;
51907;SDS011;39320;53.214;6.556;2023-08-31T10:36:17;1.83;;;0.55;;
51907;SDS011;39320;53.214;6.556;2023-08-31T10:38:44;0.63;;;0.45;;
51907;SDS011;39320;53.214;6.556;2023-08-31T10:43:44;1.10;;;0.80;;
51907;SDS011;39320;53.214;6.556;2023-08-31T10:49:18;2.30;;;0.60;;
51907;SDS011;39320;53.214;6.556;2023-08-31T10:51:47;1.30;;;0.65;;
51907;SDS011;39320;53.214;6.556;2023-08-31T10:54:47;1.38;;;0.50;;
51907;SDS011;39320;53.214;6.556;2023-08-31T10:57:06;1.60;;;0.60;;
51907;SDS011;39320;53.214;6.556;2023-08-31T10:59:48;0.85;;;0.55;;
51907;SDS011;39320;53.214;6.556;2023-08-31T11:07:43;0.70;;;0.40;;
51907;SDS011;39320;53.214;6.556;2023-08-31T11:10:16;2.10;;;0.88;;
51907;SDS011;39320;53.214;6.556;2023-08-31T11:12:51;1.85;;;0.70;;
51907;SDS011;39320;53.214;6.556;2023-08-31T11:15:18;1.00;;;0.80;;
51907;SDS011;39320;53.214;6.556;2023-08-31T11:17:46;0.77;;;0.50;;
51907;SDS011;39320;53.214;6.556;2023-08-31T11:20:14;1.67;;;0.55;;
51907;SDS011;39320;53.214;6.556;2023-08-31T11:22:41;1.63;;;0.80;;
51907;SDS011;39320;53.214;6.556;2023-08-31T11:25:09;2.05;;;0.70;;
51907;SDS011;39320;53.214;6.556;2023-08-31T11:27:37;0.85;;;0.60;;
51907;SDS011;39320;53.214;6.556;2023-08-31T11:30:25;1.23;;;0.93;;
51907;SDS011;39320;53.214;6.556;2023-08-31T11:32:56;1.15;;;0.50;;
51907;SDS011;39320;53.214;6.556;2023-08-31T11:35:30;1.00;;;0.63;;
51907;SDS011;39320;53.214;6.556;2023-08-31T11:38:08;1.35;;;0.50;;
51907;SDS011;39320;53.214;6.556;2023-08-31T11:40:35;1.90;;;0.47;;
51907;SDS011;39320;53.214;6.556;2023-08-31T11:43:02;2.00;;;0.70;;
51907;SDS011;39320;53.214;6.556;2023-08-31T11:45:30;1.60;;;0.60;;
51907;SDS011;39320;53.214;6.556;2023-08-31T11:47:56;1.02;;;0.50;;
51907;SDS011;39320;53.214;6.556;2023-08-31T11:50:23;1.13;;;0.52;;
51907;SDS011;39320;53.214;6.556;2023-08-31T11:52:50;1.23;;;0.50;;
51907;SDS011;39320;53.214;6.556;2023-08-31T11:55:18;1.13;;;0.40;;
51907;SDS011;39320;53.214;6.556;2023-08-31T11:57:48;2.47;;;0.90;;
51907;SDS011;39320;53.214;6.556;2023-08-31T12:00:17;1.13;;;0.60;;
51907;SDS011;39320;53.214;6.556;2023-08-31T12:02:45;1.08;;;0.50;;
51907;SDS011;39320;53.214;6.556;2023-08-31T12:05:14;1.35;;;0.70;;
51907;SDS011;39320;53.214;6.556;2023-08-31T12:07:40;1.35;;;0.63;;
51907;SDS011;39320;53.214;6.556;2023-08-31T12:10:06;1.45;;;0.60;;
51907;SDS011;39320;53.214;6.556;2023-08-31T12:12:33;1.25;;;0.65;;
51907;SDS011;39320;53.214;6.556;2023-08-31T12:15:01;1.95;;;0.93;;
51907;SDS011;39320;53.214;6.556;2023-08-31T12:17:29;1.73;;;0.55;;
51907;SDS011;39320;53.214;6.556;2023-08-31T12:20:04;0.82;;;0.50;;
51907;SDS011;39320;53.214;6.556;2023-08-31T12:22:30;1.38;;;0.60;;
51907;SDS011;39320;53.214;6.556;2023-08-31T12:24:56;1.92;;;0.70;;
51907;SDS011;39320;53.214;6.556;2023-08-31T12:27:21;1.00;;;0.50;;
51907;SDS011;39320;53.214;6.556;2023-08-31T12:29:47;1.10;;;0.52;;
51907;SDS011;39320;53.214;6.556;2023-08-31T12:32:14;1.33;;;0.65;;
51907;SDS011;39320;53.214;6.556;2023-08-31T12:34:40;1.75;;;0.73;;
51907;SDS011;39320;53.214;6.556;2023-08-31T12:37:06;1.10;;;0.60;;
51907;SDS011;39320;53.214;6.556;2023-08-31T12:39:32;3.10;;;0.95;;
51907;SDS011;39320;53.214;6.556;2023-08-31T12:41:58;1.10;;;0.80;;
51907;SDS011;39320;53.214;6.556;2023-08-31T12:44:24;2.05;;;0.63;;
51907;SDS011;39320;53.214;6.556;2023-08-31T12:46:51;0.93;;;0.77;;
51907;SDS011;39320;53.214;6.556;2023-08-31T12:49:17;1.38;;;0.90;;
51907;SDS011;39320;53.214;6.556;2023-08-31T12:51:45;1.10;;;0.60;;
51907;SDS011;39320;53.214;6.556;2023-08-31T12:54:11;1.52;;;0.50;;
51907;SDS011;39320;53.214;6.556;2023-08-31T12:56:37;1.50;;;0.50;;
51907;SDS011;39320;53.214;6.556;2023-08-31T12:59:03;0.73;;;0.57;;
51907;SDS011;39320;53.214;6.556;2023-08-31T13:01:30;1.05;;;0.65;;
51907;SDS011;39320;53.214;6.556;2023-08-31T13:03:58;1.10;;;0.70;;
51907;SDS011;39320;53.214;6.556;2023-08-31T13:06:24;1.00;;;0.60;;
51907;SDS011;39320;53.214;6.556;2023-08-31T13:08:51;0.80;;;0.57;;
51907;SDS011;39320;53.214;6.556;2023-08-31T13:11:17;1.70;;;0.50;;
51907;SDS011;39320;53.214;6.556;2023-08-31T13:13:48;1.17;;;0.50;;
51907;SDS011;39320;53.214;6.556;2023-08-31T13:16:16;1.38;;;0.60;;
51907;SDS011;39320;53.214;6.556;2023-08-31T13:18:42;1.48;;;0.60;;
51907;SDS011;39320;53.214;6.556;2023-08-31T13:21:08;0.95;;;0.50;;
51907;SDS011;39320;53.214;6.556;2023-08-31T13:23:33;1.27;;;0.73;;
51907;SDS011;39320;53.214;6.556;2023-08-31T13:25:59;1.75;;;0.75;;
51907;SDS011;39320;53.214;6.556;2023-08-31T13:28:25;2.53;;;0.45;;
51907;SDS011;39320;53.214;6.556;2023-08-31T13:30:59;1.95;;;0.50;;
51907;SDS011;39320;53.214;6.556;2023-08-31T13:33:26;1.27;;;0.70;;
51907;SDS011;39320;53.214;6.556;2023-08-31T13:35:58;2.13;;;0.73;;
51907;SDS011;39320;53.214;6.556;2023-08-31T13:38:24;1.10;;;0.60;;
51907;SDS011;39320;53.214;6.556;2023-08-31T13:40:59;1.38;;;0.50;;
51907;SDS011;39320;53.214;6.556;2023-08-31T13:43:24;2.25;;;0.63;;
51907;SDS011;39320;53.214;6.556;2023-08-31T13:45:51;1.58;;;0.80;;
51907;SDS011;39320;53.214;6.556;2023-08-31T13:48:17;1.13;;;0.70;;
51907;SDS011;39320;53.214;6.556;2023-08-31T13:50:43;1.17;;;0.50;;
51907;SDS011;39320;53.214;6.556;2023-08-31T13:53:11;1.67;;;0.50;;
51907;SDS011;39320;53.214;6.556;2023-08-31T13:55:37;0.65;;;0.40;;
51907;SDS011;39320;53.214;6.556;2023-08-31T13:58:03;0.93;;;0.45;;
51907;SDS011;39320;53.214;6.556;2023-08-31T14:00:31;2.00;;;0.65;;
51907;SDS011;39320;53.214;6.556;2023-08-31T14:02:57;1.38;;;0.60;;
51907;SDS011;39320;53.214;6.556;2023-08-31T14:05:27;1.98;;;0.50;;
51907;SDS011;39320;53.214;6.556;2023-08-31T14:07:53;1.20;;;0.65;;
51907;SDS011;39320;53.214;6.556;2023-08-31T14:10:18;1.58;;;0.60;;
51907;SDS011;39320;53.214;6.556;2023-08-31T14:12:46;0.82;;;0.55;;
51907;SDS011;39320;53.214;6.556;2023-08-31T14:15:18;2.10;;;0.80;;
51907;SDS011;39320;53.214;6.556;2023-08-31T14:17:44;1.83;;;0.68;;
51907;SDS011;39320;53.214;6.556;2023-08-31T14:20:10;1.55;;;0.80;;
51907;SDS011;39320;53.214;6.556;2023-08-31T14:22:37;0.95;;;0.70;;
51907;SDS011;39320;53.214;6.556;2023-08-31T14:25:08;1.25;;;0.50;;
51907;SDS011;39320;53.214;6.556;2023-08-31T14:27:35;2.28;;;0.75;;
51907;SDS011;39320;53.214;6.556;2023-08-31T14:30:01;3.17;;;1.20;;
51907;SDS011;39320;53.214;6.556;2023-08-31T14:32:27;3.78;;;0.95;;
51907;SDS011;39320;53.214;6.556;2023-08-31T14:34:53;2.22;;;0.70;;
51907;SDS011;39320;53.214;6.556;2023-08-31T14:37:20;1.20;;;0.70;;
51907;SDS011;39320;53.214;6.556;2023-08-31T14:39:46;1.23;;;0.80;;
51907;SDS011;39320;53.214;6.556;2023-08-31T14:42:11;1.58;;;0.70;;
51907;SDS011;39320;53.214;6.556;2023-08-31T14:44:37;1.27;;;0.68;;
51907;SDS011;39320;53.214;6.556;2023-08-31T14:47:03;1.83;;;0.90;;
51907;SDS011;39320;53.214;6.556;2023-08-31T14:49:29;1.77;;;0.63;;
51907;SDS011;39320;53.214;6.556;2023-08-31T14:51:54;2.15;;;0.90;;
51907;SDS011;39320;53.214;6.556;2023-08-31T14:54:20;0.80;;;0.50;;
51907;SDS011;39320;53.214;6.556;2023-08-31T14:56:47;1.38;;;0.68;;
51907;SDS011;39320;53.214;6.556;2023-08-31T14:59:13;2.50;;;0.82;;
51907;SDS011;39320;53.214;6.556;2023-08-31T15:01:38;1.85;;;0.57;;
51907;SDS011;39320;53.214;6.556;2023-08-31T15:04:04;1.02;;;0.80;;
51907;SDS011;39320;53.214;6.556;2023-08-31T15:06:30;0.80;;;0.55;;
51907;SDS011;39320;53.214;6.556;2023-08-31T15:08:58;1.88;;;0.55;;
51907;SDS011;39320;53.214;6.556;2023-08-31T15:11:27;1.85;;;0.68;;
51907;SDS011;39320;53.214;6.556;2023-08-31T15:13:53;1.98;;;0.77;;
51907;SDS011;39320;53.214;6.556;2023-08-31T15:16:19;1.10;;;0.60;;
51907;SDS011;39320;53.214;6.556;2023-08-31T15:18:45;2.10;;;0.80;;